Terminal Aerodrome Forecast
Issued by NWS

Home | Current Version | Previous Version | Text Only | Print | Product List | Glossary On
Versions: 1 2 3 4 5 6 7 8 9 10 11 12 13
000
FTUS41 KBOX 280536
TAFHYA
TAF
KHYA 280536Z 2806/2906 00000KT P6SM SKC
     FM281200 29010KT P6SM SKC
     FM281700 25008KT P6SM SKC=

USA.gov is the U.S. government's official web portal to all federal, state and local government web resources and services.